createdAt,value
2019-05-11T00:00:27.602Z,7.70
2019-05-11T00:02:58.443Z,7.83
2019-05-11T00:05:27.043Z,7.53
2019-05-11T00:07:57.250Z,7.47
2019-05-11T00:10:25.747Z,7.67
2019-05-11T00:12:54.315Z,6.83
2019-05-11T00:15:22.843Z,6.63
2019-05-11T00:17:51.326Z,7.20
2019-05-11T00:20:20.576Z,6.33
2019-05-11T00:22:49.061Z,6.47
2019-05-11T00:25:17.604Z,7.10
2019-05-11T00:27:46.124Z,7.27
2019-05-11T00:30:14.694Z,7.83
2019-05-11T00:32:43.187Z,6.43
2019-05-11T00:35:11.758Z,7.70
2019-05-11T00:37:40.278Z,7.00
2019-05-11T00:40:14.533Z,6.53
2019-05-11T00:42:39.241Z,7.83
2019-05-11T00:45:07.874Z,7.83
2019-05-11T00:47:36.434Z,6.90
2019-05-11T00:50:07.417Z,6.87
2019-05-11T00:52:35.951Z,7.33
2019-05-11T00:55:06.088Z,8.00
2019-05-11T00:57:34.634Z,8.53
2019-05-11T01:00:03.231Z,7.23
2019-05-11T01:02:31.921Z,7.53
2019-05-11T01:05:01.658Z,8.60
2019-05-11T01:07:30.197Z,7.60
2019-05-11T01:09:58.953Z,7.10
2019-05-11T01:12:28.101Z,8.07
2019-05-11T01:14:56.735Z,9.07
2019-05-11T01:17:25.273Z,9.00
2019-05-11T01:19:53.855Z,8.03
2019-05-11T01:22:22.365Z,8.70
2019-05-11T01:24:50.899Z,8.47
2019-05-11T01:27:19.439Z,9.17
2019-05-11T01:29:47.928Z,9.13
2019-05-11T01:32:16.495Z,8.00
2019-05-11T01:34:45.090Z,9.20
2019-05-11T01:37:13.592Z,8.80
2019-05-11T01:39:42.172Z,9.10
2019-05-11T01:42:10.729Z,8.47
2019-05-11T01:44:39.502Z,9.50
2019-05-11T01:47:08.442Z,9.07
2019-05-11T01:49:37.030Z,9.67
2019-05-11T01:52:05.517Z,8.57
2019-05-11T01:54:34.017Z,8.67
2019-05-11T01:57:02.653Z,9.33
2019-05-11T01:59:31.192Z,8.73
2019-05-11T02:01:59.688Z,8.47
2019-05-11T02:04:28.262Z,8.63
2019-05-11T02:06:57.007Z,8.70
2019-05-11T02:09:25.516Z,9.00
2019-05-11T02:11:54.038Z,8.57
2019-05-11T02:14:22.530Z,8.83
2019-05-11T02:16:51.036Z,10.13
2019-05-11T02:19:19.612Z,9.60
2019-05-11T02:21:48.111Z,8.10
2019-05-11T02:24:16.966Z,8.40
2019-05-11T02:26:45.524Z,10.40
2019-05-11T02:29:14.028Z,8.90
2019-05-11T02:31:42.530Z,8.00
2019-05-11T02:34:11.064Z,7.73
2019-05-11T02:36:39.572Z,8.40
2019-05-11T02:39:08.156Z,8.27
2019-05-11T02:41:37.646Z,9.10
2019-05-11T02:44:06.585Z,9.00
2019-05-11T02:46:35.650Z,9.10
2019-05-11T02:49:04.182Z,9.07
2019-05-11T02:51:33.206Z,8.43
2019-05-11T02:54:03.103Z,9.37
2019-05-11T02:56:31.628Z,8.77
2019-05-11T02:59:00.129Z,8.97
2019-05-11T03:01:28.655Z,8.53
2019-05-11T03:03:57.194Z,9.10
2019-05-11T03:06:25.684Z,9.77
2019-05-11T03:08:54.349Z,8.67
2019-05-11T03:11:22.932Z,9.57
2019-05-11T03:13:51.431Z,8.40
2019-05-11T03:16:21.571Z,7.27
2019-05-11T03:18:50.082Z,9.00
2019-05-11T03:21:18.650Z,9.03
2019-05-11T03:23:47.163Z,8.47
2019-05-11T03:26:15.737Z,8.23
2019-05-11T03:28:44.232Z,9.00
2019-05-11T03:31:12.737Z,8.30
2019-05-11T03:33:41.340Z,8.73
2019-05-11T03:36:09.823Z,7.30
2019-05-11T03:38:38.318Z,8.43
2019-05-11T03:41:06.862Z,8.37
2019-05-11T03:43:35.657Z,8.30
2019-05-11T03:46:04.581Z,9.37
2019-05-11T03:48:33.355Z,9.33
2019-05-11T03:51:01.872Z,10.20
2019-05-11T03:53:30.586Z,11.03
2019-05-11T03:55:59.815Z,11.57
2019-05-11T03:58:28.718Z,15.60
2019-05-11T04:00:57.170Z,14.17
2019-05-11T04:03:25.709Z,13.40
2019-05-11T04:05:54.238Z,13.27
2019-05-11T04:08:22.768Z,15.50
2019-05-11T04:10:52.369Z,20.77
2019-05-11T04:13:20.878Z,15.97
2019-05-11T04:15:49.370Z,14.90
2019-05-11T04:18:17.955Z,14.73
2019-05-11T04:20:46.459Z,16.37
2019-05-11T04:23:14.958Z,14.20
2019-05-11T04:25:44.387Z,13.20
2019-05-11T04:28:12.869Z,13.67
2019-05-11T04:30:42.911Z,13.77
2019-05-11T04:33:11.455Z,12.93
2019-05-11T04:35:39.956Z,14.80
2019-05-11T04:38:08.480Z,12.00
2019-05-11T04:40:37.023Z,13.20
2019-05-11T04:43:05.516Z,13.23
2019-05-11T04:45:35.037Z,13.80
2019-05-11T04:48:03.688Z,13.07
2019-05-11T04:50:33.569Z,12.90
2019-05-11T04:53:03.057Z,14.33
2019-05-11T04:55:31.733Z,11.60
2019-05-11T04:58:00.656Z,9.40
2019-05-11T05:00:29.125Z,10.37
2019-05-11T05:02:57.683Z,8.00
2019-05-11T05:05:26.185Z,8.13
2019-05-11T05:08:08.666Z,7.50
2019-05-11T05:10:25.057Z,6.83
2019-05-11T05:13:09.342Z,7.73
2019-05-11T05:15:24.282Z,7.37
2019-05-11T05:17:52.835Z,7.60
2019-05-11T05:20:21.317Z,7.67
2019-05-11T05:22:49.789Z,8.10
2019-05-11T05:25:18.304Z,5.97
2019-05-11T05:27:46.788Z,8.07
2019-05-11T05:30:15.294Z,7.90
2019-05-11T05:32:43.821Z,7.83
2019-05-11T05:35:12.332Z,7.20
2019-05-11T05:37:40.820Z,6.63
2019-05-11T05:40:10.936Z,7.63
2019-05-11T05:42:39.414Z,7.60
2019-05-11T05:45:07.999Z,8.00
2019-05-11T05:47:36.485Z,8.50
2019-05-11T05:50:06.806Z,6.73
2019-05-11T05:52:35.270Z,6.90
2019-05-11T05:55:04.825Z,6.50
2019-05-11T05:57:33.324Z,8.87
2019-05-11T06:00:01.804Z,9.07
2019-05-11T06:02:30.315Z,7.70
2019-05-11T06:04:58.802Z,7.93
2019-05-11T06:07:27.296Z,6.63
2019-05-11T06:09:55.837Z,7.40
2019-05-11T06:12:24.303Z,7.03
2019-05-11T06:14:53.121Z,6.63
2019-05-11T06:17:21.654Z,7.40
2019-05-11T06:19:50.138Z,6.90
2019-05-11T06:22:18.611Z,6.87
2019-05-11T06:24:47.143Z,6.90
2019-05-11T06:27:15.623Z,8.27
2019-05-11T06:29:44.125Z,8.70
2019-05-11T06:32:12.636Z,7.13
2019-05-11T06:34:41.101Z,6.37
2019-05-11T06:37:09.830Z,6.93
2019-05-11T06:39:38.366Z,6.53
2019-05-11T06:42:06.870Z,7.47
2019-05-11T06:44:35.352Z,6.67
2019-05-11T06:47:04.051Z,6.30
2019-05-11T06:49:32.521Z,5.70
2019-05-11T06:52:01.011Z,6.57
2019-05-11T06:54:29.535Z,4.50
2019-05-11T06:56:58.286Z,5.33
2019-05-11T06:59:26.779Z,5.20
2019-05-11T07:01:55.286Z,5.13
2019-05-11T07:04:23.774Z,3.90
2019-05-11T07:06:52.271Z,3.80
2019-05-11T07:09:20.821Z,4.10
2019-05-11T07:11:49.402Z,4.83
2019-05-11T07:14:21.006Z,4.33
2019-05-11T07:16:48.694Z,4.20
2019-05-11T07:19:17.179Z,4.60
2019-05-11T07:21:48.886Z,5.20
2019-05-11T07:24:17.462Z,4.43
2019-05-11T07:26:46.103Z,4.80
2019-05-11T07:29:14.616Z,4.00
2019-05-11T07:31:43.159Z,4.90
2019-05-11T07:34:11.716Z,4.50
2019-05-11T07:36:40.208Z,4.40
2019-05-11T07:39:08.725Z,4.10
2019-05-11T07:41:38.722Z,4.10
2019-05-11T07:44:09.816Z,4.23
2019-05-11T07:46:37.851Z,4.13
2019-05-11T07:49:08.556Z,4.20
2019-05-11T07:51:38.741Z,4.90
2019-05-11T07:54:08.466Z,4.83
2019-05-11T07:56:39.024Z,4.50
2019-05-11T07:59:08.047Z,4.73
2019-05-11T08:01:38.644Z,4.90
2019-05-11T08:04:07.784Z,4.30
2019-05-11T08:06:38.921Z,5.37
2019-05-11T08:09:08.310Z,4.20
2019-05-11T08:11:38.857Z,3.83
2019-05-11T08:14:07.875Z,5.47
2019-05-11T08:16:38.716Z,5.50
2019-05-11T08:19:10.321Z,5.73
2019-05-11T08:21:38.901Z,4.90
2019-05-11T08:24:09.109Z,4.27
2019-05-11T08:26:38.659Z,4.70
2019-05-11T08:29:08.067Z,5.20
2019-05-11T08:31:38.436Z,4.40
2019-05-11T08:34:08.901Z,4.50
2019-05-11T08:36:37.893Z,4.30
2019-05-11T08:39:08.089Z,5.27
2019-05-11T08:41:38.468Z,4.37
2019-05-11T08:44:08.924Z,4.13
2019-05-11T08:46:38.639Z,4.50
2019-05-11T08:49:08.626Z,4.67
2019-05-11T08:51:38.571Z,4.60
2019-05-11T08:54:09.011Z,3.80
2019-05-11T08:56:38.407Z,4.00
2019-05-11T08:59:08.052Z,3.90
2019-05-11T09:01:39.407Z,4.33
2019-05-11T09:04:08.884Z,3.20
2019-05-11T09:06:37.826Z,3.60
2019-05-11T09:09:08.865Z,4.00
2019-05-11T09:11:38.960Z,3.77
2019-05-11T09:14:08.379Z,3.50
2019-05-11T09:16:38.372Z,3.73
2019-05-11T09:19:08.760Z,3.23
2019-05-11T09:21:38.293Z,3.00
2019-05-11T09:24:08.491Z,4.03
2019-05-11T09:26:38.940Z,3.67
2019-05-11T09:29:08.676Z,3.63
2019-05-11T09:31:39.121Z,3.37
2019-05-11T09:34:08.952Z,3.40
2019-05-11T09:36:38.857Z,3.50
2019-05-11T09:39:08.669Z,3.50
2019-05-11T09:41:38.350Z,4.60
2019-05-11T09:44:09.007Z,4.27
2019-05-11T09:46:38.445Z,4.10
2019-05-11T09:49:08.038Z,3.70
2019-05-11T09:51:37.966Z,5.50
2019-05-11T09:54:07.874Z,3.43
2019-05-11T09:56:38.210Z,3.90
2019-05-11T09:59:08.759Z,4.40
2019-05-11T10:01:37.892Z,4.53
2019-05-11T10:04:09.060Z,4.30
2019-05-11T10:06:39.073Z,3.43
2019-05-11T10:09:10.822Z,3.80
2019-05-11T10:11:40.015Z,3.53
2019-05-11T10:14:10.172Z,3.27
2019-05-11T10:16:38.858Z,3.60
2019-05-11T10:19:08.521Z,3.83
2019-05-11T10:21:38.485Z,4.10
2019-05-11T10:24:08.463Z,3.33
2019-05-11T10:26:38.682Z,3.23
2019-05-11T10:29:08.999Z,3.30
2019-05-11T10:31:38.710Z,3.00
2019-05-11T10:34:10.753Z,4.03
2019-05-11T10:36:41.074Z,3.00
2019-05-11T10:39:12.818Z,3.13
2019-05-11T10:41:41.305Z,3.27
2019-05-11T10:44:18.906Z,3.70
2019-05-11T10:46:48.371Z,3.60
2019-05-11T10:49:18.826Z,4.20
2019-05-11T10:52:09.660Z,3.20
2019-05-11T10:54:42.470Z,3.40
2019-05-11T10:57:12.609Z,3.97
2019-05-11T10:59:42.878Z,4.10
2019-05-11T11:02:13.911Z,3.90
2019-05-11T11:04:42.711Z,3.60
2019-05-11T11:07:11.207Z,3.60
2019-05-11T11:09:41.463Z,4.70
2019-05-11T11:12:13.583Z,4.43
2019-05-11T11:14:48.163Z,3.47
2019-05-11T11:17:19.836Z,4.30
2019-05-11T11:19:53.010Z,5.10
2019-05-11T11:22:35.843Z,4.20
2019-05-11T11:24:54.064Z,4.80
2019-05-11T11:27:23.207Z,3.77
2019-05-11T11:29:54.400Z,4.40
2019-05-11T11:32:22.926Z,4.33
2019-05-11T11:34:54.798Z,3.93
2019-05-11T11:37:28.088Z,4.50
2019-05-11T11:39:58.126Z,4.30
2019-05-11T11:42:28.575Z,3.83
2019-05-11T11:45:02.118Z,3.80
2019-05-11T11:47:30.991Z,3.13
2019-05-11T11:50:00.617Z,3.70
2019-05-11T11:52:30.645Z,3.00
2019-05-11T11:55:02.385Z,3.47
2019-05-11T11:57:32.371Z,3.90
2019-05-11T12:00:04.236Z,3.00
2019-05-11T12:02:34.290Z,3.10
2019-05-11T12:05:02.791Z,2.83
2019-05-11T12:07:31.284Z,2.87
2019-05-11T12:10:07.902Z,1.97
2019-05-11T12:12:38.859Z,3.10
2019-05-11T12:15:09.047Z,2.67
2019-05-11T12:17:38.231Z,2.77
2019-05-11T12:20:09.284Z,2.70
2019-05-11T12:22:38.750Z,3.20
2019-05-11T12:25:08.075Z,3.47
2019-05-11T12:27:38.288Z,3.20
2019-05-11T12:30:11.106Z,3.13
2019-05-11T12:32:48.525Z,3.33
2019-05-11T12:35:17.859Z,3.17
2019-05-11T12:37:48.630Z,4.20
2019-05-11T12:40:19.062Z,2.90
2019-05-11T12:42:48.888Z,3.80
2019-05-11T12:45:18.675Z,3.67
2019-05-11T12:47:49.181Z,4.13
2019-05-11T12:50:19.396Z,4.60
2019-05-11T12:52:47.934Z,4.57
2019-05-11T12:55:18.174Z,4.07
2019-05-11T12:57:48.341Z,3.40
2019-05-11T13:00:19.338Z,3.93
2019-05-11T13:02:49.118Z,3.10
2019-05-11T13:05:19.180Z,2.90
2019-05-11T13:07:48.513Z,3.77
2019-05-11T13:10:17.819Z,4.00
2019-05-11T13:12:50.409Z,4.33
2019-05-11T13:15:18.981Z,3.43
2019-05-11T13:17:49.214Z,3.70
2019-05-11T13:20:18.201Z,2.70
2019-05-11T13:22:48.891Z,3.47
2019-05-11T13:25:17.720Z,3.70
2019-05-11T13:27:48.951Z,3.60
2019-05-11T13:30:18.396Z,3.23
2019-05-11T13:32:49.361Z,3.07
2019-05-11T13:35:18.796Z,4.70
2019-05-11T13:37:48.089Z,2.80
2019-05-11T13:40:18.446Z,2.53
2019-05-11T13:42:49.309Z,3.10
2019-05-11T13:45:17.998Z,3.20
2019-05-11T13:47:54.478Z,3.65
2019-05-11T13:50:20.016Z,3.00
2019-05-11T13:52:48.501Z,2.80
2019-05-11T13:55:18.172Z,3.37
2019-05-11T13:57:48.643Z,3.30
2019-05-11T14:00:17.816Z,2.73
2019-05-11T14:02:48.528Z,2.63
2019-05-11T14:05:19.877Z,2.80
2019-05-11T14:07:49.986Z,2.50
2019-05-11T14:10:18.541Z,2.80
2019-05-11T14:12:50.052Z,2.90
2019-05-11T14:15:19.042Z,2.33
2019-05-11T14:17:48.581Z,2.80
2019-05-11T14:20:21.036Z,3.20
2019-05-11T14:22:49.535Z,2.80
2019-05-11T14:25:18.827Z,3.20
2019-05-11T14:27:48.014Z,2.63
2019-05-11T14:30:18.803Z,3.00
2019-05-11T14:32:47.785Z,3.00
2019-05-11T14:35:18.803Z,2.70
2019-05-11T14:37:48.651Z,3.20
2019-05-11T14:40:17.908Z,3.77
2019-05-11T14:42:49.311Z,3.27
2019-05-11T14:45:18.697Z,2.87
2019-05-11T14:47:47.869Z,3.80
2019-05-11T14:50:18.589Z,4.20
2019-05-11T14:52:48.831Z,3.60
2019-05-11T14:55:18.437Z,4.00
2019-05-11T14:57:48.593Z,3.53
2019-05-11T15:00:18.648Z,3.10
2019-05-11T15:02:49.641Z,3.27
2019-05-11T15:05:20.420Z,2.90
2019-05-11T15:07:52.030Z,2.80
2019-05-11T15:10:19.459Z,2.93
2019-05-11T15:12:48.877Z,3.50
2019-05-11T15:15:18.634Z,3.10
2019-05-11T15:17:49.220Z,2.73
2019-05-11T15:20:17.976Z,3.30
2019-05-11T15:22:48.679Z,3.03
2019-05-11T15:25:19.343Z,3.00
2019-05-11T15:27:48.719Z,3.67
2019-05-11T15:30:18.323Z,3.83
2019-05-11T15:32:48.118Z,4.03
2019-05-11T15:35:18.503Z,3.07
2019-05-11T15:37:48.343Z,2.80
2019-05-11T15:40:21.640Z,2.60
2019-05-11T15:42:50.125Z,2.73
2019-05-11T15:45:19.253Z,2.57
2019-05-11T15:47:48.697Z,2.90
2019-05-11T15:50:19.017Z,3.30
2019-05-11T15:52:48.729Z,3.57
2019-05-11T15:55:19.022Z,3.40
2019-05-11T15:57:48.440Z,3.63
2019-05-11T16:00:17.590Z,3.43
2019-05-11T16:02:48.682Z,4.20
2019-05-11T16:05:18.267Z,3.37
2019-05-11T16:07:48.978Z,3.40
2019-05-11T16:10:19.462Z,3.87
2019-05-11T16:12:48.797Z,3.07
2019-05-11T16:15:19.416Z,3.83
2019-05-11T16:17:48.737Z,2.43
2019-05-11T16:20:18.045Z,2.57
2019-05-11T16:22:47.964Z,4.40
2019-05-11T16:25:19.248Z,2.47
2019-05-11T16:27:47.149Z,2.70
2019-05-11T16:30:18.378Z,3.03
2019-05-11T16:32:48.038Z,2.10
2019-05-11T16:35:18.004Z,2.80
2019-05-11T16:37:48.612Z,2.07
2019-05-11T16:40:20.162Z,2.57
2019-05-11T16:42:47.885Z,2.07
2019-05-11T16:45:18.958Z,1.80
2019-05-11T16:47:48.315Z,2.13
2019-05-11T16:50:18.059Z,2.50
2019-05-11T16:52:48.142Z,1.87
2019-05-11T16:55:18.419Z,2.00
2019-05-11T16:57:48.554Z,2.53
2019-05-11T17:00:17.752Z,2.40
2019-05-11T17:02:48.699Z,2.00
2019-05-11T17:05:25.814Z,2.17
2019-05-11T17:07:48.304Z,2.07
2019-05-11T17:10:18.167Z,1.90
2019-05-11T17:12:48.267Z,2.13
2019-05-11T17:15:18.499Z,1.87
2019-05-11T17:17:48.620Z,1.73
2019-05-11T17:20:19.389Z,2.20
2019-05-11T17:22:48.563Z,2.00
2019-05-11T17:25:19.322Z,1.80
2019-05-11T17:27:48.574Z,1.80
2019-05-11T17:30:19.205Z,2.10
2019-05-11T17:32:49.165Z,3.13
2019-05-11T17:35:18.243Z,2.60
2019-05-11T17:37:48.507Z,2.57
2019-05-11T17:40:22.295Z,3.30
2019-05-11T17:42:53.531Z,3.20
2019-05-11T17:45:20.749Z,2.70
2019-05-11T17:47:51.702Z,2.33
2019-05-11T17:50:20.498Z,2.83
2019-05-11T17:52:50.291Z,2.80
2019-05-11T17:55:19.451Z,2.83
2019-05-11T17:57:49.684Z,2.97
2019-05-11T18:00:23.434Z,3.23
2019-05-11T18:02:52.072Z,2.70
2019-05-11T18:05:20.814Z,3.13
2019-05-11T18:07:49.794Z,2.77
2019-05-11T18:10:19.267Z,2.60
2019-05-11T18:12:48.652Z,2.20
2019-05-11T18:15:18.643Z,2.23
2019-05-11T18:17:48.397Z,2.40
2019-05-11T18:20:22.298Z,2.37
2019-05-11T18:22:51.162Z,2.50
2019-05-11T18:25:22.466Z,2.13
2019-05-11T18:27:54.256Z,2.80
2019-05-11T18:30:22.851Z,2.37
2019-05-11T18:32:51.559Z,3.57
2019-05-11T18:35:20.035Z,3.80
2019-05-11T18:37:48.539Z,2.90
2019-05-11T18:40:18.694Z,4.00
2019-05-11T18:42:48.830Z,3.80
2019-05-11T18:45:19.384Z,3.37
2019-05-11T18:47:49.102Z,3.80
2019-05-11T18:50:29.352Z,3.70
2019-05-11T18:52:48.983Z,3.30
2019-05-11T18:55:19.003Z,3.70
2019-05-11T18:57:49.039Z,3.80
2019-05-11T19:00:18.939Z,2.90
2019-05-11T19:02:49.325Z,3.13
2019-05-11T19:05:18.172Z,3.33
2019-05-11T19:07:48.136Z,3.23
2019-05-11T19:10:16.943Z,3.70
2019-05-11T19:12:45.424Z,5.13
2019-05-11T19:15:14.187Z,5.10
2019-05-11T19:17:42.704Z,6.53
2019-05-11T19:20:11.252Z,5.63
2019-05-11T19:22:39.775Z,6.60
2019-05-11T19:25:08.993Z,5.67
2019-05-11T19:27:37.859Z,7.77
2019-05-11T19:30:09.432Z,8.00
2019-05-11T19:32:38.493Z,11.03
2019-05-11T19:35:08.972Z,8.30
2019-05-11T19:37:38.884Z,7.00
2019-05-11T19:40:09.226Z,5.40
2019-05-11T19:42:59.065Z,6.47
2019-05-11T19:45:29.320Z,5.37
2019-05-11T19:47:57.916Z,5.40
2019-05-11T19:50:26.443Z,5.20
2019-05-11T19:52:54.915Z,5.73
2019-05-11T19:55:23.473Z,4.80
2019-05-11T19:57:52.272Z,5.17
2019-05-11T20:00:22.868Z,4.40
2019-05-11T20:02:51.425Z,4.20
2019-05-11T20:05:19.981Z,4.30
2019-05-11T20:07:49.005Z,3.87
2019-05-11T20:10:18.913Z,5.00
2019-05-11T20:12:48.514Z,3.37
2019-05-11T20:15:18.885Z,4.87
2019-05-11T20:17:48.601Z,3.87
2019-05-11T20:20:18.610Z,5.37
2019-05-11T20:22:48.284Z,4.90
2019-05-11T20:25:18.592Z,6.03
2019-05-11T20:27:48.375Z,6.20
2019-05-11T20:30:18.600Z,4.73
2019-05-11T20:32:48.500Z,4.67
2019-05-11T20:35:17.621Z,5.07
2019-05-11T20:37:46.106Z,4.40
2019-05-11T20:40:14.660Z,4.20
2019-05-11T20:42:43.158Z,4.33
2019-05-11T20:45:11.731Z,4.40
2019-05-11T20:47:40.203Z,4.03
2019-05-11T20:50:08.913Z,4.47
2019-05-11T20:52:38.970Z,3.90
2019-05-11T20:55:08.788Z,3.90
2019-05-11T20:57:39.191Z,3.90
2019-05-11T21:00:09.813Z,2.97
2019-05-11T21:02:38.441Z,3.80
2019-05-11T21:05:09.081Z,5.33
2019-05-11T21:07:38.880Z,4.10
2019-05-11T21:10:08.578Z,4.00
2019-05-11T21:12:38.576Z,3.93
2019-05-11T21:15:08.620Z,3.83
2019-05-11T21:17:37.084Z,3.10
2019-05-11T21:20:07.641Z,3.87
2019-05-11T21:22:40.003Z,3.93
2019-05-11T21:25:09.053Z,3.97
2019-05-11T21:27:38.599Z,4.17
2019-05-11T21:30:11.805Z,3.73
2019-05-11T21:32:41.049Z,4.47
2019-05-11T21:35:09.972Z,5.37
2019-05-11T21:37:39.162Z,5.20
2019-05-11T21:40:09.105Z,5.00
2019-05-11T21:42:38.990Z,5.20
2019-05-11T21:45:09.458Z,5.07
2019-05-11T21:47:38.894Z,4.40
2019-05-11T21:50:08.999Z,4.87
2019-05-11T21:52:38.513Z,3.73
2019-05-11T21:55:09.459Z,4.93
2019-05-11T21:57:38.366Z,3.97
2019-05-11T22:00:08.960Z,4.37
2019-05-11T22:02:38.420Z,3.63
2019-05-11T22:05:08.299Z,4.43
2019-05-11T22:07:38.830Z,3.67
2019-05-11T22:10:10.076Z,4.70
2019-05-11T22:12:39.363Z,3.60
2019-05-11T22:15:09.539Z,3.70
2019-05-11T22:17:39.298Z,3.47
2019-05-11T22:20:08.799Z,4.50
2019-05-11T22:22:38.962Z,3.53
2019-05-11T22:25:11.562Z,4.97
2019-05-11T22:27:40.096Z,4.53
2019-05-11T22:30:09.120Z,4.17
2019-05-11T22:32:38.652Z,4.50
2019-05-11T22:35:08.583Z,3.53
2019-05-11T22:37:38.508Z,4.03
2019-05-11T22:40:08.673Z,4.90
2019-05-11T22:42:37.716Z,4.90
2019-05-11T22:45:09.654Z,4.87
2019-05-11T22:47:39.420Z,6.07
2019-05-11T22:50:09.090Z,4.73
2019-05-11T22:52:40.498Z,5.97
2019-05-11T22:55:11.657Z,6.33
2019-05-11T22:57:38.956Z,4.90
2019-05-11T23:00:09.268Z,4.73
2019-05-11T23:02:38.190Z,4.53
2019-05-11T23:05:09.000Z,4.40
2019-05-11T23:07:41.216Z,6.20
2019-05-11T23:10:09.915Z,4.93
2019-05-11T23:12:38.842Z,5.10
2019-05-11T23:15:15.061Z,4.30
2019-05-11T23:17:43.664Z,6.07
2019-05-11T23:20:12.590Z,5.60
2019-05-11T23:22:57.571Z,4.70
2019-05-11T23:25:19.932Z,5.83
2019-05-11T23:27:48.972Z,5.50
2019-05-11T23:30:19.701Z,5.50
2019-05-11T23:32:49.943Z,4.67
2019-05-11T23:35:18.963Z,5.70
2019-05-11T23:37:49.414Z,5.73
2019-05-11T23:40:18.406Z,5.20
2019-05-11T23:42:48.937Z,5.90
2019-05-11T23:45:18.836Z,6.27
2019-05-11T23:47:48.862Z,5.47
2019-05-11T23:50:19.146Z,6.13
2019-05-11T23:52:53.231Z,5.47
2019-05-11T23:55:19.366Z,5.10
2019-05-11T23:57:49.707Z,6.33
